sensor_id;sensor_type;location;lat;lon;timestamp;pressure;altitude;pressure_sealevel;temperature;humidity
70815;BME280;58428;49.478;10.986;2022-12-18T00:01:46;99838.03;;;-8.80;100.00
70815;BME280;58428;49.478;10.986;2022-12-18T00:04:22;99837.72;;;-8.85;100.00
70815;BME280;58428;49.478;10.986;2022-12-18T00:06:48;99838.34;;;-8.83;100.00
70815;BME280;58428;49.478;10.986;2022-12-18T00:09:13;99840.66;;;-8.80;100.00
70815;BME280;58428;49.478;10.986;2022-12-18T00:11:39;99834.59;;;-8.88;100.00
70815;BME280;58428;49.478;10.986;2022-12-18T00:14:04;99826.47;;;-9.01;100.00
70815;BME280;58428;49.478;10.986;2022-12-18T00:16:30;99835.84;;;-9.14;100.00
70815;BME280;58428;49.478;10.986;2022-12-18T00:18:58;99835.84;;;-9.14;100.00
70815;BME280;58428;49.478;10.986;2022-12-18T00:21:24;99828.28;;;-9.02;100.00
70815;BME280;58428;49.478;10.986;2022-12-18T00:23:50;99829.03;;;-8.85;100.00
70815;BME280;58428;49.478;10.986;2022-12-18T00:26:24;99826.22;;;-8.76;100.00
70815;BME280;58428;49.478;10.986;2022-12-18T00:28:50;99826.03;;;-8.75;100.00
70815;BME280;58428;49.478;10.986;2022-12-18T00:31:20;99831.44;;;-8.76;100.00
70815;BME280;58428;49.478;10.986;2022-12-18T00:33:47;99824.91;;;-8.80;100.00
70815;BME280;58428;49.478;10.986;2022-12-18T00:36:16;99823.91;;;-8.79;100.00
70815;BME280;58428;49.478;10.986;2022-12-18T00:38:42;99827.38;;;-8.78;100.00
70815;BME280;58428;49.478;10.986;2022-12-18T00:41:10;99836.56;;;-8.82;100.00
70815;BME280;58428;49.478;10.986;2022-12-18T00:43:38;99842.38;;;-9.11;100.00
70815;BME280;58428;49.478;10.986;2022-12-18T00:46:05;99844.00;;;-9.10;100.00
70815;BME280;58428;49.478;10.986;2022-12-18T00:48:31;99843.72;;;-9.14;100.00
70815;BME280;58428;49.478;10.986;2022-12-18T00:50:56;99832.13;;;-9.28;100.00
70815;BME280;58428;49.478;10.986;2022-12-18T00:53:22;99832.66;;;-9.40;100.00
70815;BME280;58428;49.478;10.986;2022-12-18T00:55:47;99828.88;;;-9.38;100.00
70815;BME280;58428;49.478;10.986;2022-12-18T00:58:15;99828.88;;;-9.38;100.00
70815;BME280;58428;49.478;10.986;2022-12-18T01:00:41;99834.59;;;-9.34;100.00
70815;BME280;58428;49.478;10.986;2022-12-18T01:03:07;99842.44;;;-9.26;100.00
70815;BME280;58428;49.478;10.986;2022-12-18T01:05:34;99856.19;;;-9.24;100.00
70815;BME280;58428;49.478;10.986;2022-12-18T01:07:59;99860.47;;;-9.47;100.00
70815;BME280;58428;49.478;10.986;2022-12-18T01:10:26;99853.28;;;-9.45;100.00
70815;BME280;58428;49.478;10.986;2022-12-18T01:12:52;99859.66;;;-9.48;100.00
70815;BME280;58428;49.478;10.986;2022-12-18T01:15:20;99857.84;;;-9.39;100.00
70815;BME280;58428;49.478;10.986;2022-12-18T01:17:45;99864.84;;;-9.24;100.00
70815;BME280;58428;49.478;10.986;2022-12-18T01:20:12;99863.69;;;-9.13;100.00
70815;BME280;58428;49.478;10.986;2022-12-18T01:22:40;99864.81;;;-9.08;100.00
70815;BME280;58428;49.478;10.986;2022-12-18T01:25:08;99873.16;;;-9.05;100.00
70815;BME280;58428;49.478;10.986;2022-12-18T01:27:34;99863.31;;;-9.03;100.00
70815;BME280;58428;49.478;10.986;2022-12-18T01:29:59;99867.59;;;-9.02;100.00
70815;BME280;58428;49.478;10.986;2022-12-18T01:32:28;99863.50;;;-9.04;100.00
70815;BME280;58428;49.478;10.986;2022-12-18T01:34:54;99872.66;;;-9.00;100.00
70815;BME280;58428;49.478;10.986;2022-12-18T01:37:19;99877.72;;;-8.99;100.00
70815;BME280;58428;49.478;10.986;2022-12-18T01:39:45;99877.38;;;-8.88;100.00
70815;BME280;58428;49.478;10.986;2022-12-18T01:42:15;99871.44;;;-8.74;100.00
70815;BME280;58428;49.478;10.986;2022-12-18T01:47:47;99873.09;;;-8.43;100.00
70815;BME280;58428;49.478;10.986;2022-12-18T01:50:19;99873.81;;;-8.27;100.00
70815;BME280;58428;49.478;10.986;2022-12-18T01:52:56;99890.63;;;-8.13;100.00
70815;BME280;58428;49.478;10.986;2022-12-18T01:55:29;99887.06;;;-8.20;100.00
70815;BME280;58428;49.478;10.986;2022-12-18T01:57:58;99888.84;;;-8.21;100.00
70815;BME280;58428;49.478;10.986;2022-12-18T02:00:25;99874.16;;;-8.07;100.00
70815;BME280;58428;49.478;10.986;2022-12-18T02:02:51;99880.59;;;-8.10;100.00
70815;BME280;58428;49.478;10.986;2022-12-18T02:05:22;99877.34;;;-7.98;100.00
70815;BME280;58428;49.478;10.986;2022-12-18T02:10:46;99875.56;;;-7.75;100.00
70815;BME280;58428;49.478;10.986;2022-12-18T02:13:27;99882.19;;;-7.65;100.00
70815;BME280;58428;49.478;10.986;2022-12-18T02:18:49;99889.34;;;-7.36;100.00
70815;BME280;58428;49.478;10.986;2022-12-18T02:27:15;99879.22;;;-7.62;100.00
70815;BME280;58428;49.478;10.986;2022-12-18T02:29:49;99874.44;;;-7.58;100.00
70815;BME280;58428;49.478;10.986;2022-12-18T02:32:19;99877.25;;;-7.60;100.00
70815;BME280;58428;49.478;10.986;2022-12-18T02:34:46;99875.00;;;-7.48;100.00
70815;BME280;58428;49.478;10.986;2022-12-18T02:37:15;99866.03;;;-7.39;100.00
70815;BME280;58428;49.478;10.986;2022-12-18T02:39:43;99862.91;;;-7.21;100.00
70815;BME280;58428;49.478;10.986;2022-12-18T02:42:10;99868.72;;;-7.11;100.00
70815;BME280;58428;49.478;10.986;2022-12-18T02:44:50;99876.66;;;-6.96;100.00
70815;BME280;58428;49.478;10.986;2022-12-18T02:47:18;99883.81;;;-6.91;100.00
70815;BME280;58428;49.478;10.986;2022-12-18T02:50:13;99896.78;;;-6.75;100.00
70815;BME280;58428;49.478;10.986;2022-12-18T02:52:55;99890.53;;;-6.59;100.00
70815;BME280;58428;49.478;10.986;2022-12-18T02:58:08;99886.41;;;-6.48;100.00
70815;BME280;58428;49.478;10.986;2022-12-18T03:00:48;99884.94;;;-6.36;100.00
70815;BME280;58428;49.478;10.986;2022-12-18T03:03:25;99879.84;;;-6.37;100.00
70815;BME280;58428;49.478;10.986;2022-12-18T03:06:12;99873.94;;;-6.25;100.00
70815;BME280;58428;49.478;10.986;2022-12-18T03:08:43;99864.28;;;-6.18;100.00
70815;BME280;58428;49.478;10.986;2022-12-18T03:11:12;99869.00;;;-6.14;100.00
70815;BME280;58428;49.478;10.986;2022-12-18T03:13:48;99854.91;;;-6.06;100.00
70815;BME280;58428;49.478;10.986;2022-12-18T03:16:20;99856.38;;;-6.04;100.00
70815;BME280;58428;49.478;10.986;2022-12-18T03:18:56;99854.41;;;-5.95;100.00
70815;BME280;58428;49.478;10.986;2022-12-18T03:21:29;99861.56;;;-5.89;100.00
70815;BME280;58428;49.478;10.986;2022-12-18T03:23:55;99860.81;;;-5.84;100.00
70815;BME280;58428;49.478;10.986;2022-12-18T03:26:25;99875.38;;;-5.87;100.00
70815;BME280;58428;49.478;10.986;2022-12-18T03:28:56;99878.06;;;-5.81;100.00
70815;BME280;58428;49.478;10.986;2022-12-18T03:31:27;99875.53;;;-5.68;100.00
70815;BME280;58428;49.478;10.986;2022-12-18T03:33:57;99870.50;;;-5.63;100.00
70815;BME280;58428;49.478;10.986;2022-12-18T03:36:24;99880.69;;;-5.81;100.00
70815;BME280;58428;49.478;10.986;2022-12-18T03:38:50;99875.59;;;-5.62;100.00
70815;BME280;58428;49.478;10.986;2022-12-18T03:41:45;99876.47;;;-5.55;100.00
70815;BME280;58428;49.478;10.986;2022-12-18T03:44:44;99882.06;;;-5.44;100.00
70815;BME280;58428;49.478;10.986;2022-12-18T03:47:16;99883.72;;;-5.36;100.00
70815;BME280;58428;49.478;10.986;2022-12-18T03:50:16;99879.94;;;-5.27;100.00
70815;BME280;58428;49.478;10.986;2022-12-18T03:55:18;99880.25;;;-5.16;100.00
70815;BME280;58428;49.478;10.986;2022-12-18T03:57:48;99876.22;;;-5.12;100.00
70815;BME280;58428;49.478;10.986;2022-12-18T04:00:15;99872.81;;;-5.06;100.00
70815;BME280;58428;49.478;10.986;2022-12-18T04:02:49;99874.25;;;-5.04;100.00
70815;BME280;58428;49.478;10.986;2022-12-18T04:05:22;99870.78;;;-5.04;100.00
70815;BME280;58428;49.478;10.986;2022-12-18T04:07:50;99881.97;;;-5.02;100.00
70815;BME280;58428;49.478;10.986;2022-12-18T04:10:20;99891.31;;;-5.00;100.00
70815;BME280;58428;49.478;10.986;2022-12-18T04:12:46;99905.91;;;-5.04;100.00
70815;BME280;58428;49.478;10.986;2022-12-18T04:15:12;99899.44;;;-5.01;100.00
70815;BME280;58428;49.478;10.986;2022-12-18T04:17:40;99893.34;;;-5.02;100.00
70815;BME280;58428;49.478;10.986;2022-12-18T04:20:10;99889.69;;;-5.01;100.00
70815;BME280;58428;49.478;10.986;2022-12-18T04:22:36;99893.78;;;-4.98;100.00
70815;BME280;58428;49.478;10.986;2022-12-18T04:25:01;99898.56;;;-5.08;100.00
70815;BME280;58428;49.478;10.986;2022-12-18T04:27:27;99893.34;;;-5.02;100.00
70815;BME280;58428;49.478;10.986;2022-12-18T04:29:53;99899.72;;;-5.17;100.00
70815;BME280;58428;49.478;10.986;2022-12-18T04:32:20;99906.19;;;-5.19;100.00
70815;BME280;58428;49.478;10.986;2022-12-18T04:34:46;99898.38;;;-5.07;100.00
70815;BME280;58428;49.478;10.986;2022-12-18T04:37:11;99904.72;;;-5.01;100.00
70815;BME280;58428;49.478;10.986;2022-12-18T04:39:38;99907.53;;;-5.03;100.00
70815;BME280;58428;49.478;10.986;2022-12-18T04:42:04;99904.72;;;-5.01;100.00
70815;BME280;58428;49.478;10.986;2022-12-18T04:44:29;99907.38;;;-5.01;100.00
70815;BME280;58428;49.478;10.986;2022-12-18T04:46:55;99910.75;;;-5.07;100.00
70815;BME280;58428;49.478;10.986;2022-12-18T04:49:21;99907.00;;;-5.19;100.00
70815;BME280;58428;49.478;10.986;2022-12-18T04:51:48;99902.78;;;-5.13;100.00
70815;BME280;58428;49.478;10.986;2022-12-18T04:54:14;99912.34;;;-5.13;100.00
70815;BME280;58428;49.478;10.986;2022-12-18T04:56:39;99906.91;;;-5.05;100.00
70815;BME280;58428;49.478;10.986;2022-12-18T04:59:05;99898.59;;;-5.02;100.00
70815;BME280;58428;49.478;10.986;2022-12-18T05:01:31;99897.97;;;-5.04;100.00
70815;BME280;58428;49.478;10.986;2022-12-18T05:03:59;99890.00;;;-5.16;100.00
70815;BME280;58428;49.478;10.986;2022-12-18T05:06:26;99902.19;;;-5.09;100.00
70815;BME280;58428;49.478;10.986;2022-12-18T05:08:58;99899.19;;;-5.06;100.00
70815;BME280;58428;49.478;10.986;2022-12-18T05:11:23;99895.78;;;-5.00;100.00
70815;BME280;58428;49.478;10.986;2022-12-18T05:13:49;99879.78;;;-4.99;100.00
70815;BME280;58428;49.478;10.986;2022-12-18T05:16:14;99886.47;;;-4.96;100.00
70815;BME280;58428;49.478;10.986;2022-12-18T05:18:44;99890.75;;;-4.95;100.00
70815;BME280;58428;49.478;10.986;2022-12-18T05:21:13;99893.19;;;-4.94;100.00
70815;BME280;58428;49.478;10.986;2022-12-18T05:23:48;99891.78;;;-4.90;100.00
70815;BME280;58428;49.478;10.986;2022-12-18T05:26:16;99905.88;;;-4.77;100.00
70815;BME280;58428;49.478;10.986;2022-12-18T05:28:43;99904.13;;;-4.70;100.00
70815;BME280;58428;49.478;10.986;2022-12-18T05:31:09;99911.25;;;-4.64;100.00
70815;BME280;58428;49.478;10.986;2022-12-18T05:33:35;99901.75;;;-4.58;100.00
70815;BME280;58428;49.478;10.986;2022-12-18T05:36:04;99904.41;;;-4.58;100.00
70815;BME280;58428;49.478;10.986;2022-12-18T05:38:32;99907.22;;;-4.60;100.00
70815;BME280;58428;49.478;10.986;2022-12-18T05:40:58;99910.31;;;-4.56;100.00
70815;BME280;58428;49.478;10.986;2022-12-18T05:43:25;99902.53;;;-4.64;100.00
70815;BME280;58428;49.478;10.986;2022-12-18T05:45:53;99902.56;;;-4.58;100.00
70815;BME280;58428;49.478;10.986;2022-12-18T05:48:20;99893.44;;;-4.55;100.00
70815;BME280;58428;49.478;10.986;2022-12-18T05:50:46;99903.97;;;-4.62;100.00
70815;BME280;58428;49.478;10.986;2022-12-18T05:53:12;99902.94;;;-4.61;100.00
70815;BME280;58428;49.478;10.986;2022-12-18T05:55:38;99910.84;;;-4.61;100.00
70815;BME280;58428;49.478;10.986;2022-12-18T05:58:07;99915.94;;;-4.59;100.00
70815;BME280;58428;49.478;10.986;2022-12-18T06:00:34;99917.59;;;-4.58;100.00
70815;BME280;58428;49.478;10.986;2022-12-18T06:03:01;99915.78;;;-4.58;100.00
70815;BME280;58428;49.478;10.986;2022-12-18T06:05:27;99920.44;;;-4.60;100.00
70815;BME280;58428;49.478;10.986;2022-12-18T06:07:53;99917.97;;;-4.61;100.00
70815;BME280;58428;49.478;10.986;2022-12-18T06:10:19;99923.06;;;-4.60;100.00
70815;BME280;58428;49.478;10.986;2022-12-18T06:12:45;99926.75;;;-4.54;100.00
70815;BME280;58428;49.478;10.986;2022-12-18T06:15:11;99926.56;;;-4.53;100.00
70815;BME280;58428;49.478;10.986;2022-12-18T06:17:36;99928.72;;;-4.63;100.00
70815;BME280;58428;49.478;10.986;2022-12-18T06:20:04;99926.50;;;-4.59;100.00
70815;BME280;58428;49.478;10.986;2022-12-18T06:22:33;99922.63;;;-4.63;100.00
70815;BME280;58428;49.478;10.986;2022-12-18T06:25:00;99922.19;;;-4.67;100.00
70815;BME280;58428;49.478;10.986;2022-12-18T06:27:26;99916.72;;;-4.65;100.00
70815;BME280;58428;49.478;10.986;2022-12-18T06:29:53;99925.44;;;-4.71;100.00
70815;BME280;58428;49.478;10.986;2022-12-18T06:32:19;99930.28;;;-4.75;100.00
70815;BME280;58428;49.478;10.986;2022-12-18T06:34:44;99940.53;;;-4.86;100.00
70815;BME280;58428;49.478;10.986;2022-12-18T06:37:10;99936.38;;;-4.74;100.00
70815;BME280;58428;49.478;10.986;2022-12-18T06:39:37;99942.53;;;-4.61;100.00
70815;BME280;58428;49.478;10.986;2022-12-18T06:42:03;99942.78;;;-4.56;100.00
70815;BME280;58428;49.478;10.986;2022-12-18T06:44:29;99943.78;;;-4.57;100.00
70815;BME280;58428;49.478;10.986;2022-12-18T06:46:55;99941.56;;;-4.53;100.00
70815;BME280;58428;49.478;10.986;2022-12-18T06:49:20;99945.88;;;-4.52;100.00
70815;BME280;58428;49.478;10.986;2022-12-18T06:51:46;99940.41;;;-4.51;100.00
70815;BME280;58428;49.478;10.986;2022-12-18T06:54:12;99945.91;;;-4.46;100.00
70815;BME280;58428;49.478;10.986;2022-12-18T06:56:38;99943.28;;;-4.40;100.00
70815;BME280;58428;49.478;10.986;2022-12-18T06:59:03;99941.25;;;-4.38;100.00
70815;BME280;58428;49.478;10.986;2022-12-18T07:01:29;99950.66;;;-4.35;100.00
70815;BME280;58428;49.478;10.986;2022-12-18T07:03:56;99958.78;;;-4.30;100.00
70815;BME280;58428;49.478;10.986;2022-12-18T07:06:24;99949.88;;;-4.29;100.00
70815;BME280;58428;49.478;10.986;2022-12-18T07:08:51;99950.03;;;-4.31;100.00
70815;BME280;58428;49.478;10.986;2022-12-18T07:11:18;99949.25;;;-4.25;100.00
70815;BME280;58428;49.478;10.986;2022-12-18T07:13:44;99953.56;;;-4.24;100.00
70815;BME280;58428;49.478;10.986;2022-12-18T07:16:14;99936.06;;;-4.25;100.00
70815;BME280;58428;49.478;10.986;2022-12-18T07:18:40;99938.09;;;-4.20;100.00
70815;BME280;58428;49.478;10.986;2022-12-18T07:21:08;99936.22;;;-4.33;100.00
70815;BME280;58428;49.478;10.986;2022-12-18T07:23:35;99934.22;;;-4.24;100.00
70815;BME280;58428;49.478;10.986;2022-12-18T07:26:05;99925.94;;;-4.15;100.00
70815;BME280;58428;49.478;10.986;2022-12-18T07:28:32;99929.44;;;-4.08;100.00
70815;BME280;58428;49.478;10.986;2022-12-18T07:31:03;99936.16;;;-4.05;100.00
70815;BME280;58428;49.478;10.986;2022-12-18T07:33:32;99943.69;;;-4.03;100.00
70815;BME280;58428;49.478;10.986;2022-12-18T07:36:00;99947.16;;;-3.96;100.00
70815;BME280;58428;49.478;10.986;2022-12-18T07:38:34;99950.25;;;-3.92;100.00
70815;BME280;58428;49.478;10.986;2022-12-18T07:41:04;99952.69;;;-3.91;100.00
70815;BME280;58428;49.478;10.986;2022-12-18T07:43:33;99956.75;;;-3.95;100.00
70815;BME280;58428;49.478;10.986;2022-12-18T07:45:59;99969.53;;;-3.92;100.00
70815;BME280;58428;49.478;10.986;2022-12-18T07:48:24;99966.34;;;-3.81;100.00
70815;BME280;58428;49.478;10.986;2022-12-18T07:50:50;99975.16;;;-3.67;100.00
70815;BME280;58428;49.478;10.986;2022-12-18T07:53:15;99973.94;;;-3.65;100.00
70815;BME280;58428;49.478;10.986;2022-12-18T07:55:41;99974.13;;;-3.67;100.00
70815;BME280;58428;49.478;10.986;2022-12-18T07:58:08;99975.75;;;-3.66;100.00
70815;BME280;58428;49.478;10.986;2022-12-18T08:00:34;99981.59;;;-3.76;100.00
70815;BME280;58428;49.478;10.986;2022-12-18T08:03:01;99975.72;;;-3.78;100.00
70815;BME280;58428;49.478;10.986;2022-12-18T08:05:28;99981.44;;;-3.68;100.00
70815;BME280;58428;49.478;10.986;2022-12-18T08:07:54;99972.72;;;-3.63;100.00
70815;BME280;58428;49.478;10.986;2022-12-18T08:10:19;99978.22;;;-3.58;100.00
70815;BME280;58428;49.478;10.986;2022-12-18T08:12:45;99976.22;;;-3.49;100.00
70815;BME280;58428;49.478;10.986;2022-12-18T08:18:01;99984.38;;;-3.31;100.00
70815;BME280;58428;49.478;10.986;2022-12-18T08:20:26;99979.75;;;-3.17;100.00
70815;BME280;58428;49.478;10.986;2022-12-18T08:22:52;99978.13;;;-3.05;100.00
70815;BME280;58428;49.478;10.986;2022-12-18T08:25:20;99977.28;;;-3.12;100.00
70815;BME280;58428;49.478;10.986;2022-12-18T08:27:45;99976.69;;;-3.14;100.00
70815;BME280;58428;49.478;10.986;2022-12-18T08:30:12;99971.38;;;-3.20;100.00
70815;BME280;58428;49.478;10.986;2022-12-18T08:32:37;99979.94;;;-3.12;100.00
70815;BME280;58428;49.478;10.986;2022-12-18T08:35:03;99979.13;;;-3.19;100.00
70815;BME280;58428;49.478;10.986;2022-12-18T08:37:28;99972.81;;;-3.24;100.00
70815;BME280;58428;49.478;10.986;2022-12-18T08:39:54;99976.09;;;-3.03;100.00
70815;BME280;58428;49.478;10.986;2022-12-18T08:42:22;99973.44;;;-2.96;100.00
70815;BME280;58428;49.478;10.986;2022-12-18T08:45:07;99973.25;;;-2.95;100.00
70815;BME280;58428;49.478;10.986;2022-12-18T08:47:33;99975.69;;;-2.87;100.00
70815;BME280;58428;49.478;10.986;2022-12-18T08:49:58;99977.31;;;-2.73;100.00
70815;BME280;58428;49.478;10.986;2022-12-18T08:52:24;99974.25;;;-2.64;100.00
70815;BME280;58428;49.478;10.986;2022-12-18T08:55:10;99973.47;;;-2.71;100.00
70815;BME280;58428;49.478;10.986;2022-12-18T08:57:35;99967.72;;;-2.61;100.00
70815;BME280;58428;49.478;10.986;2022-12-18T09:00:01;99967.13;;;-2.51;100.00
70815;BME280;58428;49.478;10.986;2022-12-18T09:02:27;99953.25;;;-2.46;100.00
70815;BME280;58428;49.478;10.986;2022-12-18T09:04:53;99964.47;;;-2.38;100.00
70815;BME280;58428;49.478;10.986;2022-12-18T09:07:18;99958.56;;;-2.40;100.00
70815;BME280;58428;49.478;10.986;2022-12-18T09:09:44;99954.03;;;-2.33;100.00
70815;BME280;58428;49.478;10.986;2022-12-18T09:12:09;99959.94;;;-2.24;100.00
70815;BME280;58428;49.478;10.986;2022-12-18T09:14:35;99956.63;;;-2.14;100.00
70815;BME280;58428;49.478;10.986;2022-12-18T09:17:01;99959.06;;;-2.06;100.00
70815;BME280;58428;49.478;10.986;2022-12-18T09:19:27;99960.47;;;-1.97;100.00
70815;BME280;58428;49.478;10.986;2022-12-18T09:21:53;99958.84;;;-2.04;100.00
70815;BME280;58428;49.478;10.986;2022-12-18T09:24:19;99959.25;;;-2.01;100.00
70815;BME280;58428;49.478;10.986;2022-12-18T09:26:44;99963.53;;;-2.00;100.00
70815;BME280;58428;49.478;10.986;2022-12-18T09:29:10;99961.66;;;-1.86;100.00
70815;BME280;58428;49.478;10.986;2022-12-18T09:31:38;99962.00;;;-1.77;100.00
70815;BME280;58428;49.478;10.986;2022-12-18T09:34:07;99963.00;;;-1.71;100.00
70815;BME280;58428;49.478;10.986;2022-12-18T09:36:35;99958.09;;;-1.68;100.00
70815;BME280;58428;49.478;10.986;2022-12-18T09:39:04;99943.16;;;-1.56;100.00
70815;BME280;58428;49.478;10.986;2022-12-18T09:44:36;99935.56;;;-1.52;100.00
70815;BME280;58428;49.478;10.986;2022-12-18T09:49:51;99941.13;;;-1.30;100.00
70815;BME280;58428;49.478;10.986;2022-12-18T09:52:37;99943.59;;;-1.28;100.00
70815;BME280;58428;49.478;10.986;2022-12-18T09:58:06;99940.19;;;-1.35;100.00
70815;BME280;58428;49.478;10.986;2022-12-18T10:00:37;99938.13;;;-1.33;100.00
70815;BME280;58428;49.478;10.986;2022-12-18T10:03:09;99935.72;;;-1.41;100.00
70815;BME280;58428;49.478;10.986;2022-12-18T10:14:53;99926.00;;;-1.23;100.00
70815;BME280;58428;49.478;10.986;2022-12-18T10:17:41;99918.22;;;-1.24;100.00
70815;BME280;58428;49.478;10.986;2022-12-18T10:23:01;99916.03;;;-1.27;100.00
70815;BME280;58428;49.478;10.986;2022-12-18T10:25:37;99915.16;;;-1.21;100.00
70815;BME280;58428;49.478;10.986;2022-12-18T10:28:18;99906.16;;;-1.20;100.00
70815;BME280;58428;49.478;10.986;2022-12-18T10:30:45;99913.53;;;-1.22;100.00
70815;BME280;58428;49.478;10.986;2022-12-18T10:33:20;99917.81;;;-1.52;100.00
70815;BME280;58428;49.478;10.986;2022-12-18T10:35:53;99910.34;;;-1.68;100.00
70815;BME280;58428;49.478;10.986;2022-12-18T10:38:39;99914.31;;;-1.46;100.00
70815;BME280;58428;49.478;10.986;2022-12-18T10:43:43;99916.16;;;-1.53;100.00
70815;BME280;58428;49.478;10.986;2022-12-18T10:51:29;99922.94;;;-0.96;100.00
70815;BME280;58428;49.478;10.986;2022-12-18T10:54:17;99914.44;;;-0.62;100.00
70815;BME280;58428;49.478;10.986;2022-12-18T10:56:44;99923.84;;;-0.60;100.00
70815;BME280;58428;49.478;10.986;2022-12-18T10:59:12;99922.34;;;-0.73;100.00
70815;BME280;58428;49.478;10.986;2022-12-18T11:01:55;99925.47;;;-0.59;100.00
70815;BME280;58428;49.478;10.986;2022-12-18T11:04:27;99929.97;;;-0.59;100.00
70815;BME280;58428;49.478;10.986;2022-12-18T11:07:00;99930.19;;;-0.43;100.00
70815;BME280;58428;49.478;10.986;2022-12-18T11:09:31;99938.06;;;-0.12;100.00
70815;BME280;58428;49.478;10.986;2022-12-18T11:12:26;99926.69;;;0.16;100.00
70815;BME280;58428;49.478;10.986;2022-12-18T11:14:56;99908.66;;;0.47;100.00
70815;BME280;58428;49.478;10.986;2022-12-18T11:17:29;99901.88;;;0.63;100.00
70815;BME280;58428;49.478;10.986;2022-12-18T11:19:59;99902.38;;;0.42;100.00
70815;BME280;58428;49.478;10.986;2022-12-18T11:22:39;99904.34;;;0.46;100.00
70815;BME280;58428;49.478;10.986;2022-12-18T11:25:17;99897.44;;;0.45;100.00
70815;BME280;58428;49.478;10.986;2022-12-18T11:28:01;99889.47;;;0.57;100.00
70815;BME280;58428;49.478;10.986;2022-12-18T11:30:37;99906.53;;;0.67;100.00
70815;BME280;58428;49.478;10.986;2022-12-18T11:33:06;99902.16;;;0.43;100.00
70815;BME280;58428;49.478;10.986;2022-12-18T11:35:47;99893.97;;;0.45;100.00
70815;BME280;58428;49.478;10.986;2022-12-18T11:38:28;99890.97;;;0.53;100.00
70815;BME280;58428;49.478;10.986;2022-12-18T11:41:29;99889.16;;;0.65;100.00
70815;BME280;58428;49.478;10.986;2022-12-18T11:44:26;99891.44;;;0.61;100.00
70815;BME280;58428;49.478;10.986;2022-12-18T11:47:47;99872.03;;;0.32;100.00
70815;BME280;58428;49.478;10.986;2022-12-18T11:50:19;99868.84;;;0.23;100.00
70815;BME280;58428;49.478;10.986;2022-12-18T11:52:47;99868.31;;;0.03;100.00
70815;BME280;58428;49.478;10.986;2022-12-18T11:55:14;99878.28;;;-0.10;100.00
70815;BME280;58428;49.478;10.986;2022-12-18T12:00:25;99853.84;;;-0.18;100.00
70815;BME280;58428;49.478;10.986;2022-12-18T12:03:16;99857.59;;;-0.08;100.00
70815;BME280;58428;49.478;10.986;2022-12-18T12:09:20;99865.88;;;-0.16;100.00
70815;BME280;58428;49.478;10.986;2022-12-18T12:15:55;99867.59;;;-0.03;100.00
70815;BME280;58428;49.478;10.986;2022-12-18T12:21:25;99847.13;;;-0.03;100.00
70815;BME280;58428;49.478;10.986;2022-12-18T12:38:14;99842.97;;;0.01;100.00
70815;BME280;58428;49.478;10.986;2022-12-18T12:40:47;99849.19;;;-0.05;100.00
70815;BME280;58428;49.478;10.986;2022-12-18T12:46:05;99839.44;;;-0.11;100.00
70815;BME280;58428;49.478;10.986;2022-12-18T12:48:46;99832.91;;;0.03;100.00
70815;BME280;58428;49.478;10.986;2022-12-18T12:53:43;99838.81;;;0.05;100.00
70815;BME280;58428;49.478;10.986;2022-12-18T12:56:13;99841.00;;;-0.03;100.00
70815;BME280;58428;49.478;10.986;2022-12-18T13:01:27;99822.75;;;0.00;100.00
70815;BME280;58428;49.478;10.986;2022-12-18T13:04:06;99822.06;;;0.04;100.00
70815;BME280;58428;49.478;10.986;2022-12-18T13:09:19;99832.69;;;0.04;100.00
70815;BME280;58428;49.478;10.986;2022-12-18T13:11:46;99824.44;;;-0.05;100.00
70815;BME280;58428;49.478;10.986;2022-12-18T13:14:35;99823.75;;;-0.01;100.00
70815;BME280;58428;49.478;10.986;2022-12-18T13:17:26;99822.81;;;-0.06;100.00
70815;BME280;58428;49.478;10.986;2022-12-18T13:20:20;99822.81;;;-0.06;100.00
70815;BME280;58428;49.478;10.986;2022-12-18T13:22:49;99820.88;;;0.00;100.00
70815;BME280;58428;49.478;10.986;2022-12-18T13:25:36;99817.91;;;0.08;100.00
70815;BME280;58428;49.478;10.986;2022-12-18T13:28:07;99816.16;;;0.02;100.00
70815;BME280;58428;49.478;10.986;2022-12-18T13:30:45;99809.44;;;0.00;100.00
70815;BME280;58428;49.478;10.986;2022-12-18T13:38:21;99818.69;;;-0.20;100.00
70815;BME280;58428;49.478;10.986;2022-12-18T13:43:27;99827.19;;;-0.30;100.00
70815;BME280;58428;49.478;10.986;2022-12-18T13:51:23;99828.31;;;-0.55;100.00
70815;BME280;58428;49.478;10.986;2022-12-18T13:53:52;99821.38;;;-0.56;100.00
70815;BME280;58428;49.478;10.986;2022-12-18T13:56:23;99818.84;;;-0.69;100.00
70815;BME280;58428;49.478;10.986;2022-12-18T13:59:33;99815.03;;;-0.73;100.00
70815;BME280;58428;49.478;10.986;2022-12-18T14:02:05;99808.41;;;-0.64;100.00
70815;BME280;58428;49.478;10.986;2022-12-18T14:04:33;99803.97;;;-0.70;100.00
70815;BME280;58428;49.478;10.986;2022-12-18T14:07:05;99792.50;;;-0.70;100.00
70815;BME280;58428;49.478;10.986;2022-12-18T14:09:35;99792.88;;;-0.67;100.00
70815;BME280;58428;49.478;10.986;2022-12-18T14:12:01;99788.66;;;-0.74;100.00
70815;BME280;58428;49.478;10.986;2022-12-18T14:14:51;99801.34;;;-0.94;100.00
70815;BME280;58428;49.478;10.986;2022-12-18T14:17:19;99797.34;;;-1.03;100.00
70815;BME280;58428;49.478;10.986;2022-12-18T14:19:47;99794.16;;;-1.11;100.00
70815;BME280;58428;49.478;10.986;2022-12-18T14:22:24;99791.00;;;-1.02;100.00
70815;BME280;58428;49.478;10.986;2022-12-18T14:25:14;99799.41;;;-1.05;100.00
70815;BME280;58428;49.478;10.986;2022-12-18T14:27:44;99798.59;;;-1.05;100.00
70815;BME280;58428;49.478;10.986;2022-12-18T14:30:30;99823.50;;;-1.24;100.00
70815;BME280;58428;49.478;10.986;2022-12-18T14:35:37;99814.72;;;-1.24;100.00
70815;BME280;58428;49.478;10.986;2022-12-18T14:43:20;99825.88;;;-1.40;100.00
70815;BME280;58428;49.478;10.986;2022-12-18T14:45:49;99823.66;;;-1.43;100.00
70815;BME280;58428;49.478;10.986;2022-12-18T14:50:44;99824.56;;;-1.55;100.00